Pierrepont, New York
Current Conditions -  °F | °C
As of 3:53 AM on Sunday 23 Nov 2014 (Local Time) from KMSS Reporting Station
Haze Haze  
Wind Chill: 34°   Ceiling: 600
Heat Index: 41°   Visibility: 5mi
Dew Point: 41°   Wind: 12mph
Humidity: 100%   Direction: 230°SW
Pressure: 29.96"   Gusts: NA
Location:  44.5792°N, 75.1592°W
Report Text: KMSS 230853Z AUTO 23010KT 5SM BR OVC006 05/05 A2996 RMK AO2 RAE49 SLP151 P0002 60011 T00500050 51012
Loading
Personal Weather Stations






























Interactive Weather Map New forecast layout! Learn more

10-Day Weather Forecast

Advertisements
Track Severe Weather on mobile